createdAt,value
2022-12-18T00:01:40.228Z,32.00
2022-12-18T00:04:07.429Z,32.34
2022-12-18T00:06:34.334Z,32.76
2022-12-18T00:09:01.123Z,35.84
2022-12-18T00:11:27.869Z,38.87
2022-12-18T00:13:54.609Z,35.72
2022-12-18T00:16:21.691Z,33.89
2022-12-18T00:18:48.622Z,33.43
2022-12-18T00:21:15.389Z,33.25
2022-12-18T00:23:42.467Z,33.05
2022-12-18T00:26:10.278Z,32.67
2022-12-18T00:28:37.000Z,32.59
2022-12-18T00:31:03.768Z,32.40
2022-12-18T00:33:30.596Z,32.26
2022-12-18T00:35:57.324Z,32.29
2022-12-18T00:38:24.056Z,32.18
2022-12-18T00:40:51.169Z,32.33
2022-12-18T00:43:17.907Z,32.07
2022-12-18T00:45:45.187Z,32.12
2022-12-18T00:48:11.950Z,34.21
2022-12-18T00:50:39.069Z,36.99
2022-12-18T00:53:05.812Z,36.71
2022-12-18T00:55:32.549Z,34.29
2022-12-18T00:57:59.282Z,33.86
2022-12-18T01:00:26.051Z,33.18
2022-12-18T01:02:52.964Z,32.86
2022-12-18T01:05:19.771Z,32.81
2022-12-18T01:07:46.509Z,32.60
2022-12-18T01:10:13.309Z,32.60
2022-12-18T01:12:40.083Z,32.46
2022-12-18T01:15:06.904Z,32.36
2022-12-18T01:17:33.768Z,32.37
2022-12-18T01:20:00.490Z,31.96
2022-12-18T01:22:27.307Z,32.32
2022-12-18T01:24:54.064Z,32.23
2022-12-18T01:27:20.894Z,32.24
2022-12-18T01:29:47.661Z,32.54
2022-12-18T01:32:14.391Z,35.04
2022-12-18T01:34:41.224Z,38.03
2022-12-18T01:37:07.962Z,35.86
2022-12-18T01:39:34.743Z,34.23
2022-12-18T01:42:04.531Z,33.58
2022-12-18T01:44:31.260Z,33.29
2022-12-18T01:46:58.050Z,32.74
2022-12-18T01:49:24.782Z,32.71
2022-12-18T01:51:51.535Z,32.66
2022-12-18T01:54:18.295Z,32.47
2022-12-18T01:56:45.025Z,32.37
2022-12-18T01:59:11.751Z,32.25
2022-12-18T02:01:38.876Z,32.31
2022-12-18T02:04:06.941Z,32.29
2022-12-18T02:06:33.662Z,32.16
2022-12-18T02:09:00.395Z,32.15
2022-12-18T02:11:27.244Z,32.30
2022-12-18T02:13:53.979Z,34.58
2022-12-18T02:16:20.787Z,37.02
2022-12-18T02:18:47.530Z,36.19
2022-12-18T02:21:14.458Z,34.25
2022-12-18T02:23:41.813Z,33.67
2022-12-18T02:26:08.775Z,33.28
2022-12-18T02:28:35.531Z,32.93
2022-12-18T02:31:02.656Z,32.67
2022-12-18T02:33:29.434Z,32.48
2022-12-18T02:35:56.158Z,32.34
2022-12-18T02:38:22.886Z,32.47
2022-12-18T02:40:49.635Z,32.27
2022-12-18T02:43:16.455Z,32.33
2022-12-18T02:45:43.246Z,32.15
2022-12-18T02:48:10.010Z,32.17
2022-12-18T02:50:36.935Z,33.05
2022-12-18T02:53:03.685Z,36.06
2022-12-18T02:55:30.494Z,38.78
2022-12-18T02:57:57.256Z,35.33
2022-12-18T03:00:23.990Z,33.96
2022-12-18T03:02:50.896Z,33.53
2022-12-18T03:05:17.738Z,33.15
2022-12-18T03:07:44.492Z,32.81
2022-12-18T03:10:11.268Z,32.85
2022-12-18T03:12:38.072Z,32.47
2022-12-18T03:15:04.886Z,32.61
2022-12-18T03:17:31.608Z,32.51
2022-12-18T03:19:58.345Z,32.10
2022-12-18T03:22:25.159Z,32.16
2022-12-18T03:24:51.870Z,32.17
2022-12-18T03:27:18.607Z,32.10
2022-12-18T03:29:45.371Z,31.97
2022-12-18T03:32:12.139Z,31.96
2022-12-18T03:34:39.257Z,32.04
2022-12-18T03:37:06.005Z,33.05
2022-12-18T03:39:32.752Z,35.73
2022-12-18T03:41:59.495Z,37.55
2022-12-18T03:44:26.267Z,35.01
2022-12-18T03:46:52.991Z,33.62
2022-12-18T03:49:19.739Z,33.46
2022-12-18T03:51:46.492Z,32.82
2022-12-18T03:54:13.243Z,32.66
2022-12-18T03:56:39.973Z,32.54
2022-12-18T03:59:06.705Z,32.31
2022-12-18T04:01:33.494Z,32.16
2022-12-18T04:04:00.486Z,32.15
2022-12-18T04:06:27.280Z,32.33
2022-12-18T04:08:54.131Z,32.18
2022-12-18T04:11:20.989Z,31.99
2022-12-18T04:13:47.909Z,31.87
2022-12-18T04:16:14.673Z,31.88
2022-12-18T04:18:41.586Z,33.50
2022-12-18T04:21:08.678Z,36.14
2022-12-18T04:23:35.418Z,37.07
2022-12-18T04:26:02.144Z,34.54
2022-12-18T04:28:28.878Z,33.58
2022-12-18T04:30:55.632Z,32.94
2022-12-18T04:33:22.387Z,32.73
2022-12-18T04:35:49.136Z,32.77
2022-12-18T04:38:16.376Z,32.59
2022-12-18T04:40:43.228Z,32.29
2022-12-18T04:43:10.212Z,32.18
2022-12-18T04:45:37.219Z,32.10
2022-12-18T04:48:03.935Z,32.40
2022-12-18T04:50:30.808Z,32.25
2022-12-18T04:52:57.612Z,31.93
2022-12-18T04:55:24.349Z,31.82
2022-12-18T04:57:51.185Z,31.82
2022-12-18T05:00:17.926Z,31.76
2022-12-18T05:02:44.759Z,32.63
2022-12-18T05:05:11.605Z,35.19
2022-12-18T05:07:38.340Z,37.65
2022-12-18T05:10:05.086Z,35.05
2022-12-18T05:12:32.740Z,33.79
2022-12-18T05:14:59.477Z,33.27
2022-12-18T05:17:26.212Z,32.76
2022-12-18T05:19:52.959Z,32.58
2022-12-18T05:22:19.687Z,32.42
2022-12-18T05:24:46.495Z,32.16
2022-12-18T05:27:13.238Z,32.39
2022-12-18T05:29:39.960Z,32.31
2022-12-18T05:32:06.713Z,32.18
2022-12-18T05:34:34.404Z,32.17
2022-12-18T05:37:01.255Z,31.86
2022-12-18T05:39:27.975Z,31.99
2022-12-18T05:41:54.719Z,32.09
2022-12-18T05:44:21.438Z,34.79
2022-12-18T05:46:48.241Z,37.26
2022-12-18T05:49:15.020Z,35.81
2022-12-18T05:51:41.744Z,33.93
2022-12-18T05:54:09.305Z,33.12
2022-12-18T05:56:36.131Z,33.10
2022-12-18T05:59:02.918Z,32.73
2022-12-18T06:01:29.823Z,32.48
2022-12-18T06:03:57.866Z,32.30
2022-12-18T06:06:24.739Z,32.28
2022-12-18T06:08:51.502Z,32.15
2022-12-18T06:11:18.325Z,31.93
2022-12-18T06:13:45.097Z,32.17
2022-12-18T06:16:11.972Z,31.79
2022-12-18T06:18:38.741Z,31.76
2022-12-18T06:21:05.472Z,31.70
2022-12-18T06:23:32.415Z,31.91
2022-12-18T06:25:59.193Z,34.37
2022-12-18T06:28:26.127Z,37.50
2022-12-18T06:30:53.875Z,35.59
2022-12-18T06:33:20.673Z,33.62
2022-12-18T06:35:47.444Z,32.99
2022-12-18T06:38:14.186Z,32.86
2022-12-18T06:40:41.103Z,32.64
2022-12-18T06:43:07.830Z,32.60
2022-12-18T06:45:34.613Z,32.13
2022-12-18T06:48:01.428Z,31.98
2022-12-18T06:50:28.180Z,32.15
2022-12-18T06:52:54.927Z,32.21
2022-12-18T06:55:21.684Z,31.71
2022-12-18T06:57:48.422Z,31.96
2022-12-18T07:00:15.175Z,31.95
2022-12-18T07:02:42.080Z,31.63
2022-12-18T07:05:10.948Z,31.49
2022-12-18T07:07:37.985Z,33.88
2022-12-18T07:10:04.839Z,36.09
2022-12-18T07:12:31.564Z,36.53
2022-12-18T07:14:58.435Z,34.02
2022-12-18T07:17:25.233Z,33.23
2022-12-18T07:19:51.970Z,32.79
2022-12-18T07:22:18.761Z,32.53
2022-12-18T07:24:45.516Z,32.49
2022-12-18T07:27:12.240Z,32.21
2022-12-18T07:29:38.973Z,32.25
2022-12-18T07:32:06.377Z,31.92
2022-12-18T07:34:33.190Z,31.88
2022-12-18T07:36:59.939Z,31.77
2022-12-18T07:39:26.743Z,32.06
2022-12-18T07:42:12.255Z,31.67
2022-12-18T07:44:39.009Z,31.82
2022-12-18T07:47:10.488Z,31.87
2022-12-18T07:49:38.881Z,32.51
2022-12-18T07:52:05.679Z,35.45
2022-12-18T07:54:32.413Z,38.09
2022-12-18T07:56:59.192Z,35.09
2022-12-18T07:59:25.933Z,33.54
2022-12-18T08:01:52.792Z,32.84
2022-12-18T08:04:19.645Z,32.54
2022-12-18T08:06:48.162Z,32.48
2022-12-18T08:09:15.225Z,32.17
2022-12-18T08:11:41.959Z,32.25
2022-12-18T08:14:08.687Z,31.98
2022-12-18T08:16:35.437Z,32.05
2022-12-18T08:19:02.266Z,32.00
2022-12-18T08:21:28.997Z,31.82
2022-12-18T08:23:55.718Z,31.59
2022-12-18T08:26:22.436Z,31.67
2022-12-18T08:28:49.188Z,31.58
2022-12-18T08:31:17.031Z,31.78
2022-12-18T08:33:44.370Z,32.55
2022-12-18T08:36:11.554Z,34.75
2022-12-18T08:38:38.275Z,37.77
2022-12-18T08:41:04.999Z,34.85
2022-12-18T08:43:50.635Z,33.53
2022-12-18T08:46:17.483Z,33.15
2022-12-18T08:48:44.542Z,32.65
2022-12-18T08:51:11.326Z,32.25
2022-12-18T08:53:38.931Z,32.30
2022-12-18T08:56:05.936Z,32.04
2022-12-18T08:58:32.668Z,31.74
2022-12-18T09:00:59.449Z,31.87
2022-12-18T09:03:26.242Z,31.71
2022-12-18T09:05:53.031Z,31.71
2022-12-18T09:08:19.788Z,31.74
2022-12-18T09:10:46.518Z,31.49
2022-12-18T09:13:13.282Z,31.36
2022-12-18T09:15:40.013Z,31.34
2022-12-18T09:18:06.747Z,33.22
2022-12-18T09:20:33.663Z,36.20
2022-12-18T09:23:00.479Z,36.82
2022-12-18T09:25:32.591Z,34.33
2022-12-18T09:27:59.377Z,33.38
2022-12-18T09:30:26.676Z,32.65
2022-12-18T09:32:53.437Z,32.59
2022-12-18T09:35:20.173Z,32.11
2022-12-18T09:37:46.913Z,32.02
2022-12-18T09:40:13.638Z,31.96
2022-12-18T09:42:40.376Z,31.79
2022-12-18T09:45:07.148Z,31.74
2022-12-18T09:47:33.911Z,31.92
2022-12-18T09:50:00.643Z,31.70
2022-12-18T09:52:27.375Z,31.72
2022-12-18T09:54:54.120Z,31.70
2022-12-18T09:57:20.869Z,31.45
2022-12-18T09:59:47.597Z,34.37
2022-12-18T10:02:14.441Z,37.59
2022-12-18T10:04:41.310Z,35.27
2022-12-18T10:07:09.465Z,33.35
2022-12-18T10:09:36.259Z,32.76
2022-12-18T10:12:04.405Z,32.46
2022-12-18T10:14:33.079Z,32.15
2022-12-18T10:16:59.812Z,31.78
2022-12-18T10:19:26.550Z,31.68
2022-12-18T10:21:53.343Z,31.73
2022-12-18T10:24:20.058Z,31.67
2022-12-18T10:26:46.825Z,31.47
2022-12-18T10:29:13.567Z,31.33
2022-12-18T10:31:40.322Z,31.46
2022-12-18T10:34:07.100Z,31.44
2022-12-18T10:36:33.816Z,34.37
2022-12-18T10:39:00.654Z,37.06
2022-12-18T10:41:29.309Z,35.02
2022-12-18T10:43:56.304Z,33.36
2022-12-18T10:46:23.135Z,32.74
2022-12-18T10:48:50.402Z,32.23
2022-12-18T10:51:17.131Z,32.17
2022-12-18T10:53:43.938Z,31.94
2022-12-18T10:56:11.253Z,31.66
2022-12-18T10:58:37.964Z,31.81
2022-12-18T11:01:04.849Z,31.63
2022-12-18T11:03:31.800Z,31.55
2022-12-18T11:05:58.602Z,31.62
2022-12-18T11:08:25.418Z,31.30
2022-12-18T11:10:52.250Z,31.45
2022-12-18T11:13:18.978Z,31.28
2022-12-18T11:15:45.746Z,32.90
2022-12-18T11:18:12.618Z,35.53
2022-12-18T11:20:39.679Z,36.95
2022-12-18T11:23:06.527Z,33.89
2022-12-18T11:25:34.959Z,32.79
2022-12-18T11:28:02.596Z,32.56
2022-12-18T11:30:29.396Z,32.17
2022-12-18T11:32:56.167Z,32.00
2022-12-18T11:35:22.890Z,31.98
2022-12-18T11:37:49.626Z,31.68
2022-12-18T11:40:16.431Z,31.60
2022-12-18T11:42:43.216Z,31.51
2022-12-18T11:45:09.937Z,31.74
2022-12-18T11:47:36.728Z,31.32
2022-12-18T11:50:03.526Z,31.26
2022-12-18T11:52:30.242Z,31.22
2022-12-18T11:54:57.140Z,31.17
2022-12-18T11:57:23.885Z,33.00
2022-12-18T11:59:50.604Z,35.64
2022-12-18T12:02:17.473Z,35.80
2022-12-18T12:04:44.350Z,33.42
2022-12-18T12:07:11.069Z,32.69
2022-12-18T12:09:38.714Z,32.22
2022-12-18T12:12:05.444Z,32.16
2022-12-18T12:14:32.169Z,31.90
2022-12-18T12:16:58.899Z,31.65
2022-12-18T12:19:25.623Z,31.43
2022-12-18T12:21:52.356Z,31.78
2022-12-18T12:24:19.094Z,31.31
2022-12-18T12:26:45.827Z,31.28
2022-12-18T12:29:19.425Z,31.35
2022-12-18T12:31:47.839Z,31.07
2022-12-18T12:34:14.609Z,32.33
2022-12-18T12:36:41.370Z,35.78
2022-12-18T12:39:08.232Z,36.37
2022-12-18T12:41:53.948Z,33.82
2022-12-18T12:44:20.689Z,32.66
2022-12-18T12:46:47.703Z,32.42
2022-12-18T12:49:15.045Z,31.88
2022-12-18T12:51:43.392Z,31.89
2022-12-18T12:54:10.149Z,31.81
2022-12-18T12:56:38.095Z,31.49
2022-12-18T12:59:05.062Z,31.70
2022-12-18T13:01:31.881Z,31.67
2022-12-18T13:03:58.988Z,31.30
2022-12-18T13:06:26.802Z,31.34
2022-12-18T13:08:53.760Z,31.26
2022-12-18T13:11:39.305Z,31.34
2022-12-18T13:14:06.628Z,32.45
2022-12-18T13:16:34.048Z,34.64
2022-12-18T13:19:00.810Z,36.39
2022-12-18T13:21:28.027Z,33.63
2022-12-18T13:23:54.812Z,32.66
2022-12-18T13:26:27.944Z,32.31
2022-12-18T13:28:56.040Z,31.94
2022-12-18T13:31:22.789Z,31.86
2022-12-18T13:36:37.139Z,31.40
2022-12-18T13:39:03.973Z,31.31
2022-12-18T13:41:30.759Z,31.40
2022-12-18T13:43:58.945Z,31.27
2022-12-18T13:46:25.719Z,31.33
2022-12-18T13:48:53.052Z,31.69
2022-12-18T13:51:19.795Z,34.42
2022-12-18T13:53:46.860Z,36.26
2022-12-18T13:56:13.577Z,35.40
2022-12-18T13:58:40.685Z,33.47
2022-12-18T14:01:07.684Z,32.68
2022-12-18T14:03:34.938Z,32.23
2022-12-18T14:06:01.785Z,32.07
2022-12-18T14:08:28.572Z,31.87
2022-12-18T14:10:55.626Z,31.82
2022-12-18T14:13:22.362Z,31.62
2022-12-18T14:15:49.451Z,31.60
2022-12-18T14:18:16.362Z,31.41
2022-12-18T14:20:45.447Z,31.60
2022-12-18T14:23:15.907Z,31.24
2022-12-18T14:25:42.634Z,31.29
2022-12-18T14:28:09.372Z,31.00
2022-12-18T14:30:36.124Z,32.60
2022-12-18T14:33:02.908Z,35.58
2022-12-18T14:35:29.659Z,37.38
2022-12-18T14:37:56.921Z,34.24
2022-12-18T14:40:23.643Z,33.05
2022-12-18T14:42:50.389Z,32.45
2022-12-18T14:45:17.107Z,32.08
2022-12-18T14:47:43.867Z,31.80
2022-12-18T14:50:10.638Z,31.82
2022-12-18T14:52:37.356Z,31.86
2022-12-18T14:55:04.081Z,31.55
2022-12-18T14:57:30.826Z,31.40
2022-12-18T14:59:57.554Z,31.25
2022-12-18T15:02:24.527Z,31.29
2022-12-18T15:04:51.411Z,31.48
2022-12-18T15:07:18.133Z,31.31
2022-12-18T15:09:45.993Z,31.12
2022-12-18T15:12:12.908Z,31.05
2022-12-18T15:14:39.642Z,32.95
2022-12-18T15:17:06.456Z,36.54
2022-12-18T15:19:33.191Z,35.68
2022-12-18T15:22:05.871Z,33.38
2022-12-18T15:24:33.211Z,32.40
2022-12-18T15:26:59.970Z,32.06
2022-12-18T15:29:27.040Z,31.74
2022-12-18T15:31:53.789Z,31.65
2022-12-18T15:34:21.534Z,31.49
2022-12-18T15:36:48.357Z,31.51
2022-12-18T15:39:15.141Z,31.51
2022-12-18T15:42:01.907Z,31.37
2022-12-18T15:44:28.633Z,31.27
2022-12-18T15:46:55.364Z,31.38
2022-12-18T15:49:22.125Z,31.37
2022-12-18T15:51:48.847Z,31.19
2022-12-18T15:54:16.919Z,31.81
2022-12-18T15:57:02.241Z,34.78
2022-12-18T15:59:29.330Z,37.41
2022-12-18T16:01:56.408Z,33.95
2022-12-18T16:04:23.320Z,32.90
2022-12-18T16:09:36.786Z,31.89
2022-12-18T16:12:03.507Z,31.84
2022-12-18T16:14:30.250Z,31.54
2022-12-18T16:16:57.309Z,31.59
2022-12-18T16:19:24.050Z,31.60
2022-12-18T16:21:50.977Z,31.52
2022-12-18T16:24:17.716Z,31.26
2022-12-18T16:26:44.444Z,31.35
2022-12-18T16:29:11.239Z,31.39
2022-12-18T16:31:38.861Z,31.14
2022-12-18T16:34:05.576Z,31.07
2022-12-18T16:36:32.315Z,33.97
2022-12-18T16:38:59.097Z,37.02
2022-12-18T16:41:32.267Z,34.56
2022-12-18T16:43:59.074Z,32.72
2022-12-18T16:46:25.858Z,32.20
2022-12-18T16:48:52.590Z,32.10
2022-12-18T16:51:19.308Z,31.96
2022-12-18T16:53:46.139Z,31.56
2022-12-18T16:56:13.094Z,31.55
2022-12-18T16:58:39.823Z,31.37
2022-12-18T17:01:08.513Z,31.37
2022-12-18T17:03:35.293Z,31.29
2022-12-18T17:06:02.093Z,31.03
2022-12-18T17:08:28.837Z,30.98
2022-12-18T17:10:55.556Z,32.44
2022-12-18T17:13:25.903Z,35.30
2022-12-18T17:15:53.139Z,36.49
2022-12-18T17:18:21.270Z,33.86
2022-12-18T17:20:48.074Z,32.84
2022-12-18T17:23:14.856Z,32.28
2022-12-18T17:25:41.637Z,31.99
2022-12-18T17:28:08.388Z,31.73
2022-12-18T17:30:35.120Z,31.69
2022-12-18T17:33:01.879Z,31.75
2022-12-18T17:35:28.592Z,31.39
2022-12-18T17:37:55.336Z,31.44
2022-12-18T17:40:22.076Z,31.31
2022-12-18T17:42:48.783Z,31.46
2022-12-18T17:45:15.573Z,31.42
2022-12-18T17:47:42.322Z,31.36
2022-12-18T17:50:09.167Z,33.60
2022-12-18T17:52:36.384Z,35.55
2022-12-18T17:55:03.117Z,35.41
2022-12-18T17:57:29.855Z,33.23
2022-12-18T17:59:56.612Z,32.45
2022-12-18T18:02:23.548Z,32.02
2022-12-18T18:04:50.416Z,31.81
2022-12-18T18:07:17.156Z,31.89
2022-12-18T18:09:43.956Z,31.78
2022-12-18T18:12:29.567Z,31.47
2022-12-18T18:14:56.337Z,31.39
2022-12-18T18:17:23.072Z,31.24
2022-12-18T18:19:49.934Z,31.46
2022-12-18T18:22:16.686Z,31.33
2022-12-18T18:24:44.973Z,31.04
2022-12-18T18:27:11.767Z,31.20
2022-12-18T18:29:38.544Z,31.25
2022-12-18T18:32:05.316Z,32.12
2022-12-18T18:34:32.120Z,34.13
2022-12-18T18:36:59.036Z,36.27
2022-12-18T18:39:25.759Z,33.89
2022-12-18T18:41:52.505Z,32.87
2022-12-18T18:44:20.402Z,32.22
2022-12-18T18:46:51.608Z,31.91
2022-12-18T18:49:18.577Z,31.99
2022-12-18T18:51:45.303Z,31.46
2022-12-18T18:54:12.657Z,31.29
2022-12-18T18:57:18.834Z,31.18
2022-12-18T18:59:31.520Z,31.36
2022-12-18T19:01:59.800Z,31.07
2022-12-18T19:04:28.380Z,31.36
2022-12-18T19:06:55.135Z,31.25
2022-12-18T19:09:22.581Z,32.39
2022-12-18T19:12:08.185Z,34.42
2022-12-18T19:14:35.117Z,35.43
2022-12-18T19:17:01.916Z,33.21
2022-12-18T19:19:29.298Z,32.33
2022-12-18T19:21:56.393Z,32.15
2022-12-18T19:24:23.128Z,31.68
2022-12-18T19:26:49.928Z,31.62
2022-12-18T19:29:16.666Z,31.50
2022-12-18T19:31:43.578Z,31.62
2022-12-18T19:34:10.348Z,31.56
2022-12-18T19:36:37.219Z,31.16
2022-12-18T19:39:04.056Z,31.06
2022-12-18T19:41:31.473Z,30.94
2022-12-18T19:44:02.245Z,31.06
2022-12-18T19:46:35.163Z,34.15
2022-12-18T19:49:01.950Z,36.06
2022-12-18T19:51:30.529Z,34.93
2022-12-18T19:53:59.410Z,32.87
2022-12-18T19:56:27.874Z,32.33
2022-12-18T19:58:54.602Z,31.88
2022-12-18T20:01:21.434Z,31.76
2022-12-18T20:03:52.331Z,31.61
2022-12-18T20:06:21.154Z,31.38
2022-12-18T20:08:47.929Z,31.25
2022-12-18T20:11:14.685Z,31.24
2022-12-18T20:13:41.608Z,31.15
2022-12-18T20:16:08.741Z,31.03
2022-12-18T20:18:35.624Z,31.08
2022-12-18T20:21:02.405Z,31.09
2022-12-18T20:23:30.259Z,31.76
2022-12-18T20:25:59.537Z,34.40
2022-12-18T20:28:26.405Z,36.56
2022-12-18T20:30:53.132Z,33.89
2022-12-18T20:33:19.867Z,32.76
2022-12-18T20:35:46.589Z,32.46
2022-12-18T20:38:14.237Z,31.67
2022-12-18T20:40:41.325Z,31.60
2022-12-18T20:43:11.306Z,31.43
2022-12-18T20:45:40.629Z,31.29
2022-12-18T20:48:09.589Z,31.29
2022-12-18T20:50:36.388Z,31.53
2022-12-18T20:53:03.153Z,31.10
2022-12-18T20:55:29.944Z,31.03
2022-12-18T20:57:56.680Z,31.84
2022-12-18T21:00:23.411Z,34.20
2022-12-18T21:02:50.292Z,36.74
2022-12-18T21:05:17.135Z,34.18
2022-12-18T21:07:43.971Z,32.93
2022-12-18T21:10:10.718Z,32.12
2022-12-18T21:13:00.118Z,31.91
2022-12-18T21:15:30.080Z,31.95
2022-12-18T21:17:56.895Z,31.53
2022-12-18T21:20:23.878Z,31.32
2022-12-18T21:22:50.927Z,31.30
2022-12-18T21:25:19.415Z,31.27
2022-12-18T21:27:46.164Z,31.37
2022-12-18T21:30:13.904Z,31.07
2022-12-18T21:32:40.647Z,31.03
2022-12-18T21:35:07.362Z,31.15
2022-12-18T21:37:34.164Z,31.20
2022-12-18T21:40:00.921Z,33.93
2022-12-18T21:42:46.528Z,36.43
2022-12-18T21:45:13.279Z,34.39
2022-12-18T21:47:40.029Z,32.72
2022-12-18T21:50:06.765Z,32.32
2022-12-18T21:52:33.484Z,31.82
2022-12-18T21:55:06.666Z,31.74
2022-12-18T21:57:35.573Z,31.44
2022-12-18T22:00:02.990Z,31.52
2022-12-18T22:02:30.087Z,31.62
2022-12-18T22:04:56.998Z,31.21
2022-12-18T22:07:23.750Z,31.24
2022-12-18T22:09:50.477Z,31.02
2022-12-18T22:12:34.999Z,30.96
2022-12-18T22:15:01.888Z,30.94
2022-12-18T22:17:28.820Z,30.96
2022-12-18T22:19:56.137Z,33.78
2022-12-18T22:22:22.940Z,36.13
2022-12-18T22:24:49.662Z,35.03
2022-12-18T22:27:16.394Z,32.84
2022-12-18T22:30:01.935Z,32.16
2022-12-18T22:32:30.738Z,31.78
2022-12-18T22:35:01.841Z,31.60
2022-12-18T22:37:33.005Z,31.36
2022-12-18T22:39:59.752Z,31.40
2022-12-18T22:42:30.342Z,31.28
2022-12-18T22:44:57.091Z,31.15
2022-12-18T22:47:28.019Z,31.34
2022-12-18T22:49:56.645Z,31.33
2022-12-18T22:52:24.337Z,31.14
2022-12-18T22:54:53.613Z,30.89
2022-12-18T22:57:21.402Z,33.61
2022-12-18T22:59:48.142Z,36.75
2022-12-18T23:02:15.052Z,34.75
2022-12-18T23:04:41.877Z,32.88
2022-12-18T23:07:08.684Z,32.35
2022-12-18T23:09:37.968Z,31.88
2022-12-18T23:12:04.708Z,31.57
2022-12-18T23:14:31.715Z,31.51
2022-12-18T23:16:58.453Z,31.60
2022-12-18T23:19:25.227Z,31.30
2022-12-18T23:21:51.976Z,31.24
2022-12-18T23:24:21.595Z,31.13
2022-12-18T23:26:48.396Z,30.97
2022-12-18T23:29:15.135Z,30.93
2022-12-18T23:31:41.896Z,31.03
2022-12-18T23:34:08.842Z,31.73
2022-12-18T23:36:45.502Z,34.12
2022-12-18T23:39:25.810Z,37.16
2022-12-18T23:41:56.661Z,33.90
2022-12-18T23:44:23.387Z,32.70
2022-12-18T23:46:50.180Z,32.13
2022-12-18T23:49:17.000Z,31.75
2022-12-18T23:51:43.728Z,31.81
2022-12-18T23:54:10.471Z,31.49
2022-12-18T23:56:37.313Z,31.47
2022-12-18T23:59:04.069Z,31.25
